createdAt,value
2023-03-05T00:02:00.342Z,61.08
2023-03-05T00:04:32.323Z,61.23
2023-03-05T00:07:04.034Z,61.45
2023-03-05T00:09:35.993Z,60.79
2023-03-05T00:12:09.158Z,60.83
2023-03-05T00:14:40.705Z,61.15
2023-03-05T00:17:12.553Z,61.56
2023-03-05T00:19:44.432Z,61.71
2023-03-05T00:22:16.066Z,61.75
2023-03-05T00:24:48.173Z,61.42
2023-03-05T00:27:19.672Z,61.29
2023-03-05T00:29:51.405Z,61.50
2023-03-05T00:32:23.668Z,61.71
2023-03-05T00:34:55.421Z,61.63
2023-03-05T00:37:27.534Z,61.46
2023-03-05T00:39:59.520Z,61.52
2023-03-05T00:42:31.200Z,61.52
2023-03-05T00:45:03.614Z,61.44
2023-03-05T00:47:37.389Z,61.58
2023-03-05T00:50:11.648Z,61.43
2023-03-05T00:52:43.301Z,61.69
2023-03-05T00:55:15.344Z,61.68
2023-03-05T00:57:47.010Z,61.75
2023-03-05T01:00:20.146Z,62.03
2023-03-05T01:02:52.103Z,62.27
2023-03-05T01:05:24.430Z,61.63
2023-03-05T01:07:57.655Z,61.51
2023-03-05T01:10:30.470Z,61.63
2023-03-05T01:13:02.448Z,61.76
2023-03-05T01:15:34.328Z,61.78
2023-03-05T01:18:06.904Z,62.01
2023-03-05T01:20:38.968Z,61.69
2023-03-05T01:23:11.210Z,62.01
2023-03-05T01:25:43.400Z,62.49
2023-03-05T01:28:15.161Z,62.61
2023-03-05T01:30:46.664Z,62.56
2023-03-05T01:33:18.545Z,62.71
2023-03-05T01:35:51.680Z,62.38
2023-03-05T01:38:24.956Z,62.62
2023-03-05T01:40:57.003Z,62.10
2023-03-05T01:43:31.441Z,61.97
2023-03-05T01:46:31.595Z,62.30
2023-03-05T01:49:24.715Z,61.85
2023-03-05T01:52:01.631Z,61.88
2023-03-05T01:54:38.424Z,61.91
2023-03-05T01:57:14.230Z,61.73
2023-03-05T01:59:47.950Z,62.41
2023-03-05T02:02:22.283Z,62.40
2023-03-05T02:04:58.994Z,62.10
2023-03-05T02:07:31.692Z,62.13
2023-03-05T02:10:03.296Z,61.70
2023-03-05T02:12:35.433Z,61.82
2023-03-05T02:15:09.271Z,62.46
2023-03-05T02:17:41.160Z,62.50
2023-03-05T02:20:19.021Z,62.58
2023-03-05T02:22:53.251Z,62.09
2023-03-05T02:25:27.832Z,62.15
2023-03-05T02:28:05.538Z,62.07
2023-03-05T02:30:37.715Z,62.20
2023-03-05T02:33:09.586Z,62.27
2023-03-05T02:35:41.268Z,62.40
2023-03-05T02:38:13.135Z,62.42
2023-03-05T02:40:45.789Z,62.35
2023-03-05T02:43:17.292Z,61.92
2023-03-05T02:45:48.730Z,61.67
2023-03-05T02:48:20.800Z,61.65
2023-03-05T02:50:53.334Z,61.75
2023-03-05T02:53:26.696Z,61.61
2023-03-05T02:55:58.297Z,62.05
2023-03-05T02:58:30.704Z,61.93
2023-03-05T03:01:02.844Z,61.45
2023-03-05T03:03:34.652Z,60.62
2023-03-05T03:06:07.581Z,61.22
2023-03-05T03:08:39.199Z,61.49
2023-03-05T03:11:12.893Z,61.65
2023-03-05T03:13:45.348Z,61.65
2023-03-05T03:16:18.207Z,61.35
2023-03-05T03:18:49.847Z,61.07
2023-03-05T03:21:24.454Z,61.15
2023-03-05T03:23:56.893Z,61.38
2023-03-05T03:26:29.412Z,61.52
2023-03-05T03:29:01.601Z,61.43
2023-03-05T03:31:33.397Z,61.02
2023-03-05T03:34:05.122Z,60.96
2023-03-05T03:36:37.327Z,60.96
2023-03-05T03:39:11.756Z,61.30
2023-03-05T03:41:46.989Z,60.98
2023-03-05T03:44:19.384Z,61.25
2023-03-05T03:46:51.961Z,60.90
2023-03-05T03:49:26.887Z,60.76
2023-03-05T03:51:59.042Z,60.94
2023-03-05T03:54:30.621Z,60.95
2023-03-05T03:57:03.053Z,61.21
2023-03-05T03:59:34.799Z,61.53
2023-03-05T04:02:07.204Z,61.07
2023-03-05T04:04:39.014Z,60.70
2023-03-05T04:07:10.847Z,61.16
2023-03-05T04:09:42.473Z,60.87
2023-03-05T04:12:18.324Z,61.16
2023-03-05T04:14:50.787Z,61.40
2023-03-05T04:17:22.667Z,61.69
2023-03-05T04:19:55.458Z,61.68
2023-03-05T04:22:27.590Z,61.34
2023-03-05T04:25:00.575Z,60.84
2023-03-05T04:27:32.284Z,61.12
2023-03-05T04:30:24.971Z,61.22
2023-03-05T04:33:09.872Z,61.28
2023-03-05T04:35:50.313Z,60.65
2023-03-05T04:38:22.280Z,60.35
2023-03-05T04:40:54.067Z,60.41
2023-03-05T04:43:26.276Z,60.47
2023-03-05T04:45:58.466Z,60.58
2023-03-05T04:48:30.204Z,60.52
2023-03-05T04:51:02.025Z,60.19
2023-03-05T04:53:33.635Z,60.45
2023-03-05T04:56:05.453Z,61.12
2023-03-05T04:58:37.255Z,60.45
2023-03-05T05:01:10.361Z,60.73
2023-03-05T05:03:42.055Z,60.66
2023-03-05T05:06:15.378Z,60.36
2023-03-05T05:08:47.115Z,60.63
2023-03-05T05:11:19.735Z,60.70
2023-03-05T05:13:52.895Z,60.68
2023-03-05T05:16:25.260Z,60.38
2023-03-05T05:18:56.890Z,60.67
2023-03-05T05:21:28.645Z,60.54
2023-03-05T05:24:00.762Z,60.46
2023-03-05T05:26:33.085Z,60.17
2023-03-05T05:29:05.045Z,60.62
2023-03-05T05:31:36.811Z,60.56
2023-03-05T05:34:08.390Z,60.53
2023-03-05T05:36:41.823Z,60.70
2023-03-05T05:39:13.846Z,60.99
2023-03-05T05:41:45.487Z,60.88
2023-03-05T05:44:17.272Z,60.87
2023-03-05T05:46:49.132Z,60.88
2023-03-05T05:49:21.435Z,60.86
2023-03-05T05:51:53.119Z,61.17
2023-03-05T05:54:25.413Z,61.34
2023-03-05T05:56:57.046Z,62.76
2023-03-05T05:59:29.854Z,63.20
2023-03-05T06:02:01.895Z,62.55
2023-03-05T06:04:34.983Z,61.75
2023-03-05T06:07:11.108Z,61.30
2023-03-05T06:09:42.605Z,61.11
2023-03-05T06:12:14.242Z,60.88
2023-03-05T06:14:45.921Z,59.86
2023-03-05T06:17:28.685Z,58.96
2023-03-05T06:20:02.602Z,59.21
2023-03-05T06:22:37.562Z,59.39
2023-03-05T06:25:11.855Z,58.92
2023-03-05T06:27:43.409Z,58.59
2023-03-05T06:30:16.696Z,57.85
2023-03-05T06:32:49.078Z,57.12
2023-03-05T06:35:22.364Z,56.52
2023-03-05T06:37:54.045Z,55.29
2023-03-05T06:40:26.252Z,54.38
2023-03-05T06:42:57.937Z,54.30
2023-03-05T06:45:29.683Z,54.07
2023-03-05T06:48:01.378Z,53.92
2023-03-05T06:50:35.769Z,53.95
2023-03-05T06:53:08.300Z,54.09
2023-03-05T06:55:41.250Z,54.77
2023-03-05T06:58:12.910Z,55.25
2023-03-05T07:00:44.875Z,55.68
2023-03-05T07:03:17.364Z,55.94
2023-03-05T07:05:49.013Z,56.52
2023-03-05T07:08:21.448Z,56.09
2023-03-05T07:10:53.562Z,56.00
2023-03-05T07:13:25.316Z,56.58
2023-03-05T07:15:57.007Z,56.98
2023-03-05T07:18:29.113Z,57.25
2023-03-05T07:21:05.587Z,57.09
2023-03-05T07:23:37.805Z,57.63
2023-03-05T07:26:10.497Z,57.65
2023-03-05T07:28:43.276Z,57.89
2023-03-05T07:31:19.372Z,58.10
2023-03-05T07:33:52.433Z,58.14
2023-03-05T07:36:26.422Z,58.06
2023-03-05T07:38:59.955Z,58.34
2023-03-05T07:41:31.488Z,58.64
2023-03-05T07:44:03.551Z,58.82
2023-03-05T07:46:36.462Z,58.86
2023-03-05T07:49:08.495Z,58.87
2023-03-05T07:51:41.832Z,58.96
2023-03-05T07:54:14.948Z,58.93
2023-03-05T07:56:46.969Z,59.67
2023-03-05T07:59:18.850Z,59.61
2023-03-05T08:01:51.063Z,59.05
2023-03-05T08:04:22.880Z,59.33
2023-03-05T08:06:56.256Z,59.40
2023-03-05T08:09:27.918Z,59.44
2023-03-05T08:12:00.087Z,59.16
2023-03-05T08:14:31.830Z,59.54
2023-03-05T08:17:03.501Z,59.60
2023-03-05T08:19:35.587Z,59.85
2023-03-05T08:22:07.216Z,59.93
2023-03-05T08:24:39.014Z,60.02
2023-03-05T08:27:10.809Z,59.65
2023-03-05T08:29:42.538Z,59.83
2023-03-05T08:32:14.634Z,59.96
2023-03-05T08:34:46.913Z,59.44
2023-03-05T08:37:18.483Z,59.59
2023-03-05T08:39:50.531Z,59.72
2023-03-05T08:42:22.057Z,60.04
2023-03-05T08:44:54.079Z,60.21
2023-03-05T08:47:27.221Z,60.22
2023-03-05T08:49:59.110Z,60.19
2023-03-05T08:52:30.706Z,60.24
2023-03-05T08:55:04.359Z,60.26
2023-03-05T08:57:36.277Z,60.30
2023-03-05T09:00:10.727Z,60.52
2023-03-05T09:02:42.466Z,60.50
2023-03-05T09:05:15.949Z,59.95
2023-03-05T09:07:47.747Z,59.78
2023-03-05T09:10:19.555Z,59.65
2023-03-05T09:12:51.644Z,59.82
2023-03-05T09:15:23.482Z,59.40
2023-03-05T09:17:55.034Z,59.92
2023-03-05T09:20:27.279Z,59.56
2023-03-05T09:22:59.440Z,59.52
2023-03-05T09:25:31.201Z,59.67
2023-03-05T09:28:02.752Z,59.50
2023-03-05T09:30:35.484Z,60.07
2023-03-05T09:33:07.480Z,59.50
2023-03-05T09:35:39.514Z,59.48
2023-03-05T09:38:11.081Z,59.69
2023-03-05T09:40:50.991Z,59.84
2023-03-05T09:43:32.885Z,59.57
2023-03-05T09:46:19.955Z,59.31
2023-03-05T09:48:56.668Z,59.19
2023-03-05T09:51:31.111Z,59.04
2023-03-05T09:54:09.030Z,59.41
2023-03-05T09:56:46.418Z,59.25
2023-03-05T09:59:27.804Z,59.38
2023-03-05T10:02:03.140Z,59.07
2023-03-05T10:04:46.436Z,59.08
2023-03-05T10:07:22.772Z,59.88
2023-03-05T10:09:59.805Z,60.37
2023-03-05T10:12:43.819Z,60.48
2023-03-05T10:15:22.946Z,60.88
2023-03-05T10:18:06.261Z,61.13
2023-03-05T10:20:51.140Z,61.71
2023-03-05T10:23:35.746Z,61.84
2023-03-05T10:26:15.532Z,62.15
2023-03-05T10:29:06.608Z,62.26
2023-03-05T10:31:50.781Z,62.66
2023-03-05T10:34:41.851Z,62.98
2023-03-05T10:37:40.845Z,63.17
2023-03-05T10:40:22.658Z,63.37
2023-03-05T10:43:04.834Z,63.59
2023-03-05T10:45:42.103Z,64.22
2023-03-05T10:48:23.113Z,64.76
2023-03-05T10:51:03.061Z,64.88
2023-03-05T10:53:38.368Z,65.65
2023-03-05T10:56:13.049Z,65.43
2023-03-05T10:58:45.380Z,65.65
2023-03-05T11:01:28.478Z,65.29
2023-03-05T11:04:04.524Z,65.72
2023-03-05T11:06:42.217Z,65.90
2023-03-05T11:09:24.525Z,65.92
2023-03-05T11:12:16.503Z,65.98
2023-03-05T11:15:04.659Z,66.38
2023-03-05T11:17:39.037Z,66.42
2023-03-05T11:20:35.116Z,66.22
2023-03-05T11:23:15.660Z,66.87
2023-03-05T11:26:02.545Z,67.34
2023-03-05T11:28:37.774Z,67.03
2023-03-05T11:31:26.063Z,67.31
2023-03-05T11:34:08.765Z,67.62
2023-03-05T11:36:42.621Z,67.83
2023-03-05T11:39:20.424Z,67.53
2023-03-05T11:41:55.248Z,67.42
2023-03-05T11:44:28.134Z,67.58
2023-03-05T11:47:07.323Z,67.40
2023-03-05T11:49:46.573Z,67.79
2023-03-05T11:52:24.869Z,67.75
2023-03-05T11:55:05.590Z,67.61
2023-03-05T11:57:45.982Z,67.99
2023-03-05T12:00:19.938Z,67.99
2023-03-05T12:02:58.199Z,67.99
2023-03-05T12:05:32.292Z,68.66
2023-03-05T12:08:06.161Z,68.88
2023-03-05T12:10:38.461Z,68.63
2023-03-05T12:13:15.611Z,68.71
2023-03-05T12:16:01.149Z,68.80
2023-03-05T12:18:40.826Z,69.09
2023-03-05T12:21:28.603Z,68.88
2023-03-05T12:24:05.995Z,68.82
2023-03-05T12:27:10.429Z,69.00
2023-03-05T12:29:57.771Z,69.05
2023-03-05T12:32:57.062Z,68.91
2023-03-05T12:35:37.510Z,69.14
2023-03-05T12:38:33.038Z,68.95
2023-03-05T12:41:21.776Z,69.19
2023-03-05T12:44:19.845Z,69.06
2023-03-05T12:47:31.433Z,68.86
2023-03-05T12:50:05.720Z,69.09
2023-03-05T12:52:41.395Z,68.93
2023-03-05T12:55:32.198Z,69.16
2023-03-05T12:58:12.383Z,69.99
2023-03-05T13:00:50.266Z,69.90
2023-03-05T13:03:29.695Z,69.94
2023-03-05T13:06:07.460Z,70.03
2023-03-05T13:08:43.788Z,69.74
2023-03-05T13:11:26.181Z,69.93
2023-03-05T13:14:00.837Z,70.14
2023-03-05T13:16:39.301Z,69.95
2023-03-05T13:19:21.643Z,70.30
2023-03-05T13:22:04.282Z,69.91
2023-03-05T13:24:38.722Z,69.64
2023-03-05T13:27:31.583Z,69.83
2023-03-05T13:30:03.706Z,70.42
2023-03-05T13:32:40.894Z,70.37
2023-03-05T13:35:21.642Z,70.48
2023-03-05T13:37:55.288Z,71.18
2023-03-05T13:40:31.201Z,70.88
2023-03-05T13:43:21.284Z,71.04
2023-03-05T13:45:59.396Z,71.16
2023-03-05T13:48:33.156Z,70.71
2023-03-05T13:51:07.541Z,70.91
2023-03-05T13:53:41.509Z,70.78
2023-03-05T13:56:19.729Z,70.98
2023-03-05T13:58:56.351Z,70.73
2023-03-05T14:01:37.172Z,70.81
2023-03-05T14:04:21.280Z,70.57
2023-03-05T14:07:00.014Z,70.58
2023-03-05T14:09:47.657Z,70.91
2023-03-05T14:12:36.509Z,71.19
2023-03-05T14:15:24.792Z,71.31
2023-03-05T14:18:19.268Z,71.09
2023-03-05T14:21:08.516Z,71.08
2023-03-05T14:23:46.278Z,71.30
2023-03-05T14:26:37.178Z,71.17
2023-03-05T14:29:21.907Z,71.23
2023-03-05T14:31:57.807Z,71.54
2023-03-05T14:34:35.497Z,71.28
2023-03-05T14:37:23.057Z,71.64
2023-03-05T14:40:01.005Z,71.40
2023-03-05T14:42:39.345Z,71.31
2023-03-05T14:45:20.627Z,71.12
2023-03-05T14:47:55.737Z,71.17
2023-03-05T14:50:34.550Z,71.24
2023-03-05T14:53:09.531Z,71.63
2023-03-05T14:55:41.495Z,71.46
2023-03-05T14:58:19.500Z,71.11
2023-03-05T15:00:55.140Z,71.43
2023-03-05T15:03:31.888Z,71.11
2023-03-05T15:06:09.304Z,71.39
2023-03-05T15:08:43.556Z,71.21
2023-03-05T15:11:19.655Z,71.25
2023-03-05T15:13:53.424Z,71.80
2023-03-05T15:16:28.302Z,71.77
2023-03-05T15:19:09.288Z,72.00
2023-03-05T15:21:43.846Z,71.73
2023-03-05T15:24:17.372Z,71.44
2023-03-05T15:26:51.979Z,71.24
2023-03-05T15:29:25.297Z,71.72
2023-03-05T15:32:00.577Z,71.31
2023-03-05T15:34:36.523Z,71.57
2023-03-05T15:37:13.326Z,71.80
2023-03-05T15:39:47.867Z,72.14
2023-03-05T15:42:20.154Z,72.28
2023-03-05T15:44:54.212Z,72.31
2023-03-05T15:47:28.512Z,72.04
2023-03-05T15:50:02.510Z,72.15
2023-03-05T15:52:36.996Z,72.28
2023-03-05T15:55:12.847Z,72.44
2023-03-05T15:57:48.363Z,72.82
2023-03-05T16:00:28.926Z,72.85
2023-03-05T16:03:03.752Z,72.79
2023-03-05T16:05:36.475Z,72.60
2023-03-05T16:08:16.474Z,72.15
2023-03-05T16:10:59.967Z,72.65
2023-03-05T16:13:35.191Z,72.78
2023-03-05T16:16:10.374Z,73.14
2023-03-05T16:18:55.179Z,73.01
2023-03-05T16:21:30.004Z,72.87
2023-03-05T16:24:04.361Z,72.49
2023-03-05T16:26:40.778Z,73.12
2023-03-05T16:29:17.118Z,73.25
2023-03-05T16:31:51.292Z,73.52
2023-03-05T16:34:28.432Z,73.35
2023-03-05T16:37:03.037Z,73.22
2023-03-05T16:39:41.260Z,73.21
2023-03-05T16:42:14.951Z,73.27
2023-03-05T16:44:50.875Z,73.27
2023-03-05T16:47:28.304Z,73.13
2023-03-05T16:50:09.461Z,72.85
2023-03-05T16:52:46.839Z,72.92
2023-03-05T16:55:21.409Z,73.22
2023-03-05T16:57:55.574Z,73.68
2023-03-05T17:00:34.689Z,73.62
2023-03-05T17:03:12.793Z,73.51
2023-03-05T17:05:47.248Z,73.00
2023-03-05T17:08:22.846Z,73.41
2023-03-05T17:10:59.959Z,73.53
2023-03-05T17:13:34.684Z,73.17
2023-03-05T17:16:08.232Z,73.16
2023-03-05T17:18:42.869Z,72.89
2023-03-05T17:21:20.559Z,72.54
2023-03-05T17:24:01.968Z,72.37
2023-03-05T17:26:37.297Z,72.76
2023-03-05T17:29:12.466Z,72.98
2023-03-05T17:31:47.251Z,72.73
2023-03-05T17:34:35.687Z,72.84
2023-03-05T17:37:12.075Z,73.24
2023-03-05T17:39:46.208Z,73.33
2023-03-05T17:42:23.530Z,73.61
2023-03-05T17:45:00.421Z,73.68
2023-03-05T17:47:37.122Z,73.59
2023-03-05T17:50:16.069Z,73.22
2023-03-05T17:52:52.121Z,72.97
2023-03-05T17:55:30.770Z,72.86
2023-03-05T17:58:06.262Z,72.37
2023-03-05T18:00:41.929Z,72.80
2023-03-05T18:03:16.582Z,72.96
2023-03-05T18:05:52.237Z,72.94
2023-03-05T18:08:26.662Z,73.06
2023-03-05T18:11:03.013Z,73.19
2023-03-05T18:13:38.308Z,72.89
2023-03-05T18:16:15.174Z,72.98
2023-03-05T18:18:49.193Z,72.61
2023-03-05T18:21:29.113Z,72.67
2023-03-05T18:24:06.819Z,72.82
2023-03-05T18:26:40.956Z,72.75
2023-03-05T18:29:20.062Z,72.95
2023-03-05T18:31:54.522Z,72.91
2023-03-05T18:34:35.402Z,72.94
2023-03-05T18:37:22.953Z,72.95
2023-03-05T18:39:58.426Z,72.92
2023-03-05T18:42:40.218Z,73.15
2023-03-05T18:45:22.634Z,73.25
2023-03-05T18:47:59.545Z,73.44
2023-03-05T18:50:38.297Z,73.41
2023-03-05T18:53:14.730Z,73.28
2023-03-05T18:55:49.742Z,72.78
2023-03-05T18:58:28.796Z,73.21
2023-03-05T19:01:03.669Z,73.07
2023-03-05T19:03:40.747Z,73.00
2023-03-05T19:06:14.808Z,73.27
2023-03-05T19:08:53.918Z,73.27
2023-03-05T19:11:28.470Z,73.79
2023-03-05T19:14:02.828Z,73.53
2023-03-05T19:16:44.440Z,73.54
2023-03-05T19:19:23.588Z,73.43
2023-03-05T19:22:00.402Z,73.00
2023-03-05T19:24:37.549Z,73.30
2023-03-05T19:27:27.413Z,73.92
2023-03-05T19:30:01.367Z,73.77
2023-03-05T19:32:40.791Z,73.10
2023-03-05T19:35:20.389Z,73.00
2023-03-05T19:37:54.022Z,73.03
2023-03-05T19:40:30.930Z,72.94
2023-03-05T19:43:10.268Z,72.92
2023-03-05T19:45:45.964Z,72.86
2023-03-05T19:48:20.881Z,73.21
2023-03-05T19:50:58.436Z,73.11
2023-03-05T19:53:43.009Z,72.89
2023-03-05T19:56:17.072Z,72.69
2023-03-05T19:58:51.999Z,72.95
2023-03-05T20:01:27.408Z,72.79
2023-03-05T20:04:04.697Z,72.56
2023-03-05T20:06:43.282Z,72.93
2023-03-05T20:09:17.850Z,72.31
2023-03-05T20:11:52.461Z,72.68
2023-03-05T20:14:26.675Z,72.82
2023-03-05T20:17:00.141Z,72.86
2023-03-05T20:19:34.674Z,73.21
2023-03-05T20:22:11.300Z,73.31
2023-03-05T20:24:56.068Z,72.67
2023-03-05T20:27:29.975Z,73.01
2023-03-05T20:30:04.820Z,73.17
2023-03-05T20:32:40.238Z,72.73
2023-03-05T20:35:17.528Z,72.54
2023-03-05T20:38:13.182Z,72.66
2023-03-05T20:40:47.658Z,72.64
2023-03-05T20:43:22.867Z,72.23
2023-03-05T20:46:00.942Z,72.88
2023-03-05T20:48:37.179Z,72.98
2023-03-05T20:51:23.622Z,72.87
2023-03-05T20:53:59.412Z,73.40
2023-03-05T20:56:43.726Z,73.57
2023-03-05T20:59:18.517Z,73.59
2023-03-05T21:01:50.830Z,72.73
2023-03-05T21:04:23.475Z,72.57
2023-03-05T21:06:59.667Z,72.97
2023-03-05T21:09:38.402Z,72.24
2023-03-05T21:12:14.989Z,71.94
2023-03-05T21:14:48.195Z,72.54
2023-03-05T21:17:21.009Z,72.60
2023-03-05T21:19:56.279Z,72.84
2023-03-05T21:22:29.936Z,73.10
2023-03-05T21:25:16.510Z,72.78
2023-03-05T21:27:51.961Z,72.81
2023-03-05T21:30:33.959Z,73.06
2023-03-05T21:33:09.884Z,73.25
2023-03-05T21:35:42.912Z,73.06
2023-03-05T21:38:18.386Z,72.54
2023-03-05T21:40:58.248Z,72.45
2023-03-05T21:43:34.371Z,72.64
2023-03-05T21:46:07.828Z,72.94
2023-03-05T21:48:41.539Z,72.79
2023-03-05T21:51:14.971Z,73.10
2023-03-05T21:53:46.712Z,73.40
2023-03-05T21:56:24.733Z,73.38
2023-03-05T21:59:00.857Z,73.52
2023-03-05T22:01:33.563Z,73.94
2023-03-05T22:04:05.475Z,73.28
2023-03-05T22:06:37.488Z,73.70
2023-03-05T22:09:09.533Z,74.05
2023-03-05T22:11:44.495Z,73.69
2023-03-05T22:14:16.997Z,73.89
2023-03-05T22:16:55.487Z,73.76
2023-03-05T22:19:27.324Z,73.54
2023-03-05T22:21:59.292Z,74.01
2023-03-05T22:24:31.206Z,73.89
2023-03-05T22:27:02.884Z,73.93
2023-03-05T22:29:36.868Z,74.15
2023-03-05T22:32:09.782Z,74.30
2023-03-05T22:34:41.437Z,73.36
2023-03-05T22:37:13.171Z,73.53
2023-03-05T22:39:44.783Z,74.39
2023-03-05T22:42:16.698Z,73.93
2023-03-05T22:44:48.452Z,73.92
2023-03-05T22:47:20.203Z,73.79
2023-03-05T22:49:51.778Z,74.26
2023-03-05T22:52:25.351Z,73.76
2023-03-05T22:54:57.120Z,73.46
2023-03-05T22:57:29.105Z,72.47
2023-03-05T23:00:00.982Z,73.13
2023-03-05T23:02:33.098Z,73.18
2023-03-05T23:05:04.932Z,72.74
2023-03-05T23:07:38.546Z,73.11
2023-03-05T23:10:14.611Z,72.88
2023-03-05T23:12:49.718Z,72.55
2023-03-05T23:15:26.950Z,72.79
2023-03-05T23:17:58.825Z,73.15
2023-03-05T23:20:32.857Z,73.17
2023-03-05T23:23:05.841Z,73.67
2023-03-05T23:25:38.407Z,73.75
2023-03-05T23:28:10.838Z,73.41
2023-03-05T23:30:43.640Z,73.26
2023-03-05T23:33:18.569Z,73.48
2023-03-05T23:35:55.718Z,73.45
2023-03-05T23:38:29.121Z,73.66
2023-03-05T23:41:03.730Z,73.28
2023-03-05T23:43:33.800Z,73.82
2023-03-05T23:46:05.319Z,73.42
2023-03-05T23:48:36.957Z,72.83
2023-03-05T23:51:12.475Z,72.97
2023-03-05T23:53:44.039Z,73.31
2023-03-05T23:56:15.841Z,73.13
2023-03-05T23:58:47.693Z,73.49
